Time,TemperatureF,DewpointF,PressureIn,WindDirection,WindDirectionDegrees,WindSpeedMPH,WindSpeedGustMPH,Humidity,HourlyPrecipIn,Conditions,Clouds,dailyrainin,SoftwareType,DateUTC
2013-05-14 00:03:00,31.0,28.0,30.14,West,259,0.0,0.0,89,0.00,,,0.04,,2013-05-14 04:03:00,
2013-05-14 00:13:00,31.0,28.0,30.14,West,259,0.0,0.0,89,0.00,,,0.04,,2013-05-14 04:13:00,
2013-05-14 00:23:00,30.0,27.0,30.14,West,260,0.0,0.0,90,0.00,,,0.04,,2013-05-14 04:23:00,
2013-05-14 00:32:00,30.0,28.0,30.14,West,271,0.0,0.0,91,0.00,,,0.04,,2013-05-14 04:32:00,
2013-05-14 00:43:00,30.0,28.0,30.14,West,271,0.0,0.0,91,0.00,,,0.04,,2013-05-14 04:43:00,
2013-05-14 00:53:00,29.0,26.0,30.14,West,271,0.0,0.0,90,0.00,,,0.04,,2013-05-14 04:53:00,
2013-05-14 01:02:00,29.0,27.0,30.14,West,271,0.0,0.0,92,0.00,,,0.02,,2013-05-14 05:02:00,
2013-05-14 01:12:00,29.0,27.0,30.14,West,271,0.0,0.0,92,0.00,,,0.02,,2013-05-14 05:12:00,
2013-05-14 01:22:00,29.0,27.0,30.14,WNW,291,0.0,1.0,92,0.00,,,0.02,,2013-05-14 05:22:00,
2013-05-14 01:32:00,29.0,27.0,30.14,WNW,287,0.0,1.0,92,0.00,,,0.02,,2013-05-14 05:32:00,
2013-05-14 01:42:00,29.0,27.0,30.14,WNW,287,0.0,1.0,92,0.00,,,0.02,,2013-05-14 05:42:00,
2013-05-14 01:52:00,28.0,26.0,30.14,WNW,287,0.0,0.0,92,0.00,,,0.02,,2013-05-14 05:52:00,
2013-05-14 02:01:00,28.0,26.0,30.14,WNW,287,0.0,0.0,92,0.00,,,0.02,,2013-05-14 06:01:00,
2013-05-14 02:12:00,28.0,26.0,30.14,WNW,287,0.0,0.0,92,0.00,,,0.02,,2013-05-14 06:12:00,
2013-05-14 02:22:00,28.0,26.0,30.14,WNW,287,0.0,0.0,93,0.00,,,0.02,,2013-05-14 06:22:00,
2013-05-14 02:32:00,28.0,26.0,30.15,West,271,0.0,2.0,93,0.00,,,0.02,,2013-05-14 06:32:00,
2013-05-14 02:42:00,28.0,26.0,30.15,West,271,0.0,2.0,93,0.00,,,0.02,,2013-05-14 06:42:00,
2013-05-14 02:51:00,28.0,26.0,30.15,West,271,0.0,1.0,93,0.00,,,0.02,,2013-05-14 06:51:00,
2013-05-14 03:02:00,28.0,26.0,30.14,West,274,0.0,0.0,93,0.00,,,0.02,,2013-05-14 07:02:00,
2013-05-14 03:11:00,28.0,26.0,30.14,West,274,0.0,0.0,93,0.00,,,0.02,,2013-05-14 07:11:00,
2013-05-14 03:21:00,28.0,26.0,30.14,West,274,0.0,0.0,93,0.00,,,0.02,,2013-05-14 07:21:00,
2013-05-14 03:32:00,28.0,26.0,30.15,West,275,0.0,1.0,93,0.00,,,0.02,,2013-05-14 07:32:00,
2013-05-14 03:42:00,27.0,25.0,30.15,West,276,0.0,0.0,93,0.00,,,0.02,,2013-05-14 07:42:00,
2013-05-14 03:52:00,27.0,25.0,30.15,West,276,0.0,0.0,93,0.00,,,0.02,,2013-05-14 07:52:00,
2013-05-14 04:02:00,27.0,26.0,30.15,West,275,0.0,0.0,94,0.00,,,0.01,,2013-05-14 08:02:00,
2013-05-14 04:11:00,27.0,26.0,30.15,West,275,0.0,0.0,94,0.00,,,0.01,,2013-05-14 08:11:00,
2013-05-14 04:21:00,27.0,26.0,30.15,West,276,0.0,0.0,94,0.00,,,0.01,,2013-05-14 08:21:00,
2013-05-14 04:32:00,27.0,25.0,30.15,West,276,0.0,0.0,93,0.00,,,0.01,,2013-05-14 08:32:00,
2013-05-14 04:42:00,27.0,26.0,30.16,West,275,0.0,0.0,94,0.00,,,0.01,,2013-05-14 08:42:00,
2013-05-14 04:52:00,27.0,26.0,30.16,West,275,0.0,0.0,94,0.00,,,0.01,,2013-05-14 08:52:00,
2013-05-14 05:02:00,27.0,26.0,30.15,West,271,0.0,0.0,94,0.00,,,0.00,,2013-05-14 09:02:00,
2013-05-14 05:11:00,27.0,26.0,30.15,West,271,0.0,0.0,94,0.00,,,0.00,,2013-05-14 09:11:00,
2013-05-14 05:22:00,26.0,25.0,30.16,West,271,0.0,0.0,94,0.00,,,0.00,,2013-05-14 09:22:00,
2013-05-14 05:32:00,26.0,25.0,30.16,West,271,0.0,0.0,94,0.00,,,0.00,,2013-05-14 09:32:00,
2013-05-14 05:44:00,26.0,25.0,30.16,West,271,0.0,0.0,94,0.00,,,0.00,,2013-05-14 09:44:00,
2013-05-14 05:54:00,26.0,25.0,30.16,West,271,0.0,0.0,94,0.00,,,0.00,,2013-05-14 09:54:00,
2013-05-14 06:05:00,26.0,25.0,30.16,West,271,0.0,0.0,94,0.00,,,0.00,,2013-05-14 10:05:00,
2013-05-14 06:14:00,26.0,25.0,30.16,West,271,0.0,0.0,94,0.00,,,0.00,,2013-05-14 10:14:00,
2013-05-14 06:25:00,26.0,25.0,30.16,West,271,0.0,0.0,94,0.00,,,0.00,,2013-05-14 10:25:00,
2013-05-14 06:33:00,26.0,25.0,30.16,West,271,0.0,0.0,95,0.00,,,0.00,,2013-05-14 10:33:00,
2013-05-14 06:42:00,26.0,25.0,30.16,West,271,0.0,0.0,95,0.00,,,0.00,,2013-05-14 10:42:00,
2013-05-14 06:52:00,27.0,26.0,30.17,West,271,0.0,0.0,95,0.00,,,0.00,,2013-05-14 10:52:00,
2013-05-14 07:03:00,28.0,27.0,30.17,West,271,0.0,0.0,95,0.00,,,0.00,,2013-05-14 11:03:00,
2013-05-14 07:11:00,28.0,27.0,30.17,West,271,0.0,0.0,95,0.00,,,0.00,,2013-05-14 11:11:00,
2013-05-14 07:22:00,31.0,29.0,30.17,West,264,0.0,1.0,94,0.00,,,0.00,,2013-05-14 11:22:00,
2013-05-14 07:32:00,34.0,32.0,30.18,West,264,0.0,0.0,92,0.00,,,0.00,,2013-05-14 11:32:00,
2013-05-14 07:43:00,34.0,32.0,30.18,West,264,0.0,0.0,92,0.00,,,0.00,,2013-05-14 11:43:00,
2013-05-14 07:52:00,37.0,34.0,30.18,West,264,0.0,0.0,87,0.00,,,0.00,,2013-05-14 11:52:00,
2013-05-14 08:03:00,39.0,35.0,30.18,ESE,114,0.0,1.0,85,0.00,,,0.00,,2013-05-14 12:03:00,
2013-05-14 08:12:00,39.0,35.0,30.18,ESE,114,0.0,1.0,85,0.00,,,0.00,,2013-05-14 12:12:00,
2013-05-14 08:21:00,41.0,36.0,30.18,ESE,120,0.0,2.0,81,0.00,,,0.00,,2013-05-14 12:21:00,
2013-05-14 08:32:00,41.0,33.0,30.18,WSW,257,2.0,9.0,73,0.00,,,0.00,,2013-05-14 12:32:00,
2013-05-14 08:42:00,41.0,33.0,30.18,WSW,257,2.0,9.0,73,0.00,,,0.00,,2013-05-14 12:42:00,
2013-05-14 08:52:00,41.0,32.0,30.18,West,278,3.0,14.0,69,0.00,,,0.00,,2013-05-14 12:52:00,
2013-05-14 09:01:00,44.0,34.0,30.18,SE,136,0.0,5.0,69,0.00,,,0.00,,2013-05-14 13:01:00,
2013-05-14 09:11:00,44.0,34.0,30.18,SE,136,0.0,5.0,69,0.00,,,0.00,,2013-05-14 13:11:00,
2013-05-14 09:22:00,44.0,34.0,30.17,East,85,2.0,6.0,67,0.00,,,0.00,,2013-05-14 13:22:00,
2013-05-14 09:32:00,44.0,32.0,30.17,West,276,2.0,10.0,62,0.00,,,0.00,,2013-05-14 13:32:00,
2013-05-14 09:42:00,44.0,32.0,30.17,West,276,2.0,10.0,62,0.00,,,0.00,,2013-05-14 13:42:00,
2013-05-14 09:52:00,44.0,32.0,30.17,West,276,2.0,10.0,62,0.00,,,0.00,,2013-05-14 13:52:00,
2013-05-14 10:01:00,47.0,33.0,30.16,SE,139,1.0,6.0,59,0.00,,,0.00,,2013-05-14 14:01:00,
2013-05-14 10:11:00,46.0,32.0,30.16,West,276,1.0,7.0,58,0.00,,,0.00,,2013-05-14 14:11:00,
2013-05-14 10:22:00,46.0,32.0,30.16,West,276,1.0,7.0,58,0.00,,,0.00,,2013-05-14 14:22:00,
2013-05-14 10:32:00,47.0,32.0,30.15,WNW,290,3.0,8.0,56,0.00,,,0.00,,2013-05-14 14:32:00,
2013-05-14 10:42:00,47.0,32.0,30.15,WNW,290,3.0,8.0,56,0.00,,,0.00,,2013-05-14 14:42:00,
2013-05-14 10:53:00,49.0,33.0,30.15,West,264,1.0,6.0,54,0.00,,,0.00,,2013-05-14 14:53:00,
2013-05-14 11:01:00,50.0,33.0,30.14,SE,135,1.0,12.0,52,0.00,,,0.00,,2013-05-14 15:01:00,
2013-05-14 11:12:00,50.0,33.0,30.14,SE,135,1.0,12.0,52,0.00,,,0.00,,2013-05-14 15:12:00,
2013-05-14 11:22:00,50.0,33.0,30.14,NE,56,1.0,6.0,51,0.00,,,0.00,,2013-05-14 15:22:00,
2013-05-14 11:33:00,50.0,32.0,30.14,West,281,3.0,10.0,49,0.00,,,0.00,,2013-05-14 15:33:00,
2013-05-14 11:43:00,51.0,32.0,30.14,West,276,3.0,10.0,48,0.00,,,0.00,,2013-05-14 15:43:00,
2013-05-14 11:53:00,51.0,32.0,30.14,West,276,3.0,10.0,48,0.00,,,0.00,,2013-05-14 15:53:00,
2013-05-14 12:02:00,50.0,33.0,30.13,WSW,249,1.0,5.0,51,0.00,,,0.00,,2013-05-14 16:02:00,
2013-05-14 12:12:00,50.0,33.0,30.13,WSW,249,1.0,5.0,51,0.00,,,0.00,,2013-05-14 16:12:00,
2013-05-14 12:23:00,51.0,30.0,30.14,West,259,3.0,8.0,45,0.00,,,0.00,,2013-05-14 16:23:00,
2013-05-14 12:33:00,49.0,30.0,30.14,West,259,2.0,10.0,48,0.00,,,0.00,,2013-05-14 16:33:00,
2013-05-14 12:44:00,49.0,30.0,30.14,West,259,2.0,10.0,48,0.00,,,0.00,,2013-05-14 16:44:00,
2013-05-14 12:54:00,49.0,30.0,30.14,ENE,63,1.0,9.0,48,0.00,,,0.00,,2013-05-14 16:54:00,
2013-05-14 13:03:00,50.0,31.0,30.14,WNW,288,2.0,7.0,48,0.00,,,0.00,,2013-05-14 17:03:00,
2013-05-14 13:13:00,50.0,31.0,30.14,WNW,288,2.0,7.0,48,0.00,,,0.00,,2013-05-14 17:13:00,
2013-05-14 13:24:00,50.0,31.0,30.14,ESE,105,3.0,12.0,48,0.00,,,0.00,,2013-05-14 17:24:00,
2013-05-14 13:33:00,49.0,30.0,30.14,West,260,2.0,8.0,48,0.00,,,0.00,,2013-05-14 17:33:00,
2013-05-14 13:43:00,49.0,30.0,30.14,West,260,2.0,8.0,48,0.00,,,0.00,,2013-05-14 17:43:00,
2013-05-14 13:52:00,51.0,31.0,30.13,WSW,245,1.0,6.0,46,0.00,,,0.00,,2013-05-14 17:52:00,
2013-05-14 14:02:00,51.0,31.0,30.13,NNE,13,1.0,6.0,46,0.00,,,0.00,,2013-05-14 18:02:00,
2013-05-14 14:12:00,51.0,31.0,30.13,NNE,13,1.0,6.0,46,0.00,,,0.00,,2013-05-14 18:12:00,
2013-05-14 14:22:00,52.0,30.0,30.12,WNW,283,3.0,8.0,42,0.00,,,0.00,,2013-05-14 18:22:00,
2013-05-14 14:32:00,52.0,30.0,30.12,West,273,2.0,6.0,43,0.00,,,0.00,,2013-05-14 18:32:00,
2013-05-14 14:42:00,52.0,30.0,30.12,West,273,2.0,6.0,43,0.00,,,0.00,,2013-05-14 18:42:00,
2013-05-14 14:52:00,53.0,31.0,30.11,WSW,249,2.0,5.0,43,0.00,,,0.00,,2013-05-14 18:52:00,
2013-05-14 15:01:00,52.0,30.0,30.11,SE,139,0.0,4.0,43,0.00,,,0.00,,2013-05-14 19:01:00,
2013-05-14 15:12:00,52.0,30.0,30.11,SE,139,0.0,4.0,43,0.00,,,0.00,,2013-05-14 19:12:00,
2013-05-14 15:22:00,53.0,28.0,30.11,WSW,257,4.0,10.0,38,0.00,,,0.00,,2013-05-14 19:22:00,
2013-05-14 15:32:00,52.0,30.0,30.11,NE,46,2.0,7.0,43,0.00,,,0.00,,2013-05-14 19:32:00,
2013-05-14 15:42:00,52.0,30.0,30.11,NE,46,2.0,7.0,43,0.00,,,0.00,,2013-05-14 19:42:00,
2013-05-14 15:53:00,53.0,32.0,30.10,East,101,1.0,5.0,44,0.00,,,0.00,,2013-05-14 19:53:00,
2013-05-14 16:02:00,53.0,31.0,30.09,NW,305,3.0,6.0,43,0.00,,,0.00,,2013-05-14 20:02:00,
2013-05-14 16:11:00,53.0,31.0,30.09,NW,305,3.0,6.0,43,0.00,,,0.00,,2013-05-14 20:11:00,
2013-05-14 16:23:00,53.0,31.0,30.09,ESE,112,3.0,9.0,43,0.00,,,0.00,,2013-05-14 20:23:00,
2013-05-14 16:33:00,54.0,31.0,30.08,West,273,1.0,9.0,42,0.00,,,0.00,,2013-05-14 20:33:00,
2013-05-14 16:44:00,54.0,31.0,30.08,West,273,1.0,9.0,42,0.00,,,0.00,,2013-05-14 20:44:00,
2013-05-14 16:52:00,54.0,32.0,30.08,East,92,2.0,8.0,43,0.00,,,0.00,,2013-05-14 20:52:00,
2013-05-14 17:03:00,54.0,31.0,30.07,WSW,250,2.0,6.0,41,0.00,,,0.00,,2013-05-14 21:03:00,
2013-05-14 17:12:00,54.0,31.0,30.07,WSW,250,2.0,6.0,41,0.00,,,0.00,,2013-05-14 21:12:00,
2013-05-14 17:23:00,54.0,31.0,30.08,ENE,58,2.0,6.0,41,0.00,,,0.00,,2013-05-14 21:23:00,
2013-05-14 17:33:00,55.0,31.0,30.07,SSE,151,3.0,9.0,40,0.00,,,0.00,,2013-05-14 21:33:00,
2013-05-14 17:43:00,55.0,31.0,30.07,SSE,151,3.0,9.0,40,0.00,,,0.00,,2013-05-14 21:43:00,
2013-05-14 17:53:00,55.0,30.0,30.07,NW,322,4.0,11.0,38,0.00,,,0.00,,2013-05-14 21:53:00,
2013-05-14 18:03:00,55.0,30.0,30.07,NW,324,2.0,5.0,38,0.00,,,0.00,,2013-05-14 22:03:00,
2013-05-14 18:13:00,55.0,30.0,30.07,NW,324,2.0,5.0,38,0.00,,,0.00,,2013-05-14 22:13:00,
2013-05-14 18:24:00,55.0,31.0,30.07,West,271,1.0,8.0,39,0.00,,,0.00,,2013-05-14 22:24:00,
2013-05-14 18:34:00,55.0,31.0,30.08,West,281,3.0,9.0,39,0.00,,,0.00,,2013-05-14 22:34:00,
2013-05-14 18:45:00,55.0,31.0,30.08,West,281,3.0,9.0,39,0.00,,,0.00,,2013-05-14 22:45:00,
2013-05-14 18:55:00,54.0,28.0,30.06,NW,309,1.0,6.0,37,0.00,,,0.00,,2013-05-14 22:55:00,
2013-05-14 19:03:00,54.0,29.0,30.06,NE,54,2.0,4.0,38,0.00,,,0.00,,2013-05-14 23:03:00,
2013-05-14 19:12:00,54.0,29.0,30.06,NE,54,2.0,4.0,38,0.00,,,0.00,,2013-05-14 23:12:00,
2013-05-14 19:22:00,53.0,29.0,30.06,SSE,149,1.0,7.0,39,0.00,,,0.00,,2013-05-14 23:22:00,
2013-05-14 19:32:00,52.0,28.0,30.07,East,94,0.0,4.0,39,0.00,,,0.00,,2013-05-14 23:32:00,
2013-05-14 19:44:00,52.0,28.0,30.07,East,94,0.0,4.0,39,0.00,,,0.00,,2013-05-14 23:44:00,
2013-05-14 19:53:00,51.0,28.0,30.06,SE,124,0.0,2.0,41,0.00,,,0.00,,2013-05-14 23:53:00,
2013-05-14 20:02:00,50.0,28.0,30.06,SE,140,0.0,2.0,43,0.00,,,0.00,,2013-05-15 00:02:00,
2013-05-14 20:11:00,50.0,28.0,30.06,SE,140,0.0,2.0,43,0.00,,,0.00,,2013-05-15 00:11:00,
2013-05-14 20:21:00,49.0,30.0,30.07,SE,140,0.0,1.0,47,0.00,,,0.00,,2013-05-15 00:21:00,
2013-05-14 20:32:00,46.0,31.0,30.07,SE,139,0.0,0.0,56,0.00,,,0.00,,2013-05-15 00:32:00,
2013-05-14 20:42:00,46.0,31.0,30.07,SE,139,0.0,0.0,56,0.00,,,0.00,,2013-05-15 00:42:00,
2013-05-14 20:52:00,44.0,31.0,30.07,SE,139,0.0,0.0,60,0.00,,,0.00,,2013-05-15 00:52:00,
2013-05-14 21:01:00,42.0,31.0,30.08,SE,139,0.0,0.0,66,0.00,,,0.00,,2013-05-15 01:01:00,
2013-05-14 21:11:00,42.0,31.0,30.08,SE,139,0.0,0.0,66,0.00,,,0.00,,2013-05-15 01:11:00,
2013-05-14 21:22:00,41.0,32.0,30.08,SE,142,0.0,0.0,71,0.00,,,0.00,,2013-05-15 01:22:00,
2013-05-14 21:32:00,40.0,33.0,30.09,WSW,250,0.0,1.0,75,0.00,,,0.00,,2013-05-15 01:32:00,
2013-05-14 21:42:00,40.0,33.0,30.09,WSW,250,0.0,1.0,75,0.00,,,0.00,,2013-05-15 01:42:00,
2013-05-14 21:52:00,39.0,32.0,30.08,NW,309,0.0,2.0,77,0.00,,,0.00,,2013-05-15 01:52:00,
2013-05-14 22:02:00,39.0,33.0,30.09,WNW,294,0.0,2.0,78,0.00,,,0.00,,2013-05-15 02:02:00,
2013-05-14 22:11:00,39.0,33.0,30.09,WNW,294,0.0,2.0,78,0.00,,,0.00,,2013-05-15 02:11:00,
2013-05-14 22:22:00,38.0,32.0,30.09,WNW,287,0.0,2.0,80,0.00,,,0.00,,2013-05-15 02:22:00,
2013-05-14 22:32:00,37.0,32.0,30.09,WNW,286,0.0,1.0,83,0.00,,,0.00,,2013-05-15 02:32:00,
2013-05-14 22:42:00,37.0,32.0,30.09,WNW,286,0.0,1.0,83,0.00,,,0.00,,2013-05-15 02:42:00,
2013-05-14 22:52:00,36.0,32.0,30.09,NW,315,0.0,2.0,84,0.00,,,0.00,,2013-05-15 02:52:00,
2013-05-14 23:01:00,36.0,32.0,30.09,NW,315,0.0,1.0,84,0.00,,,0.00,,2013-05-15 03:01:00,
2013-05-14 23:13:00,36.0,32.0,30.09,NW,315,0.0,1.0,84,0.00,,,0.00,,2013-05-15 03:13:00,
2013-05-14 23:22:00,35.0,32.0,30.09,NW,322,0.0,0.0,87,0.00,,,0.00,,2013-05-15 03:22:00,
2013-05-14 23:33:00,34.0,31.0,30.09,WNW,291,0.0,1.0,88,0.00,,,0.00,,2013-05-15 03:33:00,
2013-05-14 23:44:00,34.0,31.0,30.09,WNW,296,0.0,1.0,88,0.00,,,0.00,,2013-05-15 03:44:00,
2013-05-14 23:54:00,34.0,31.0,30.09,WNW,296,0.0,1.0,88,0.00,,,0.00,,2013-05-15 03:54:00,